sensor_id;sensor_type;location;lat;lon;timestamp;P1;durP1;ratioP1;P2;durP2;ratioP2
12088;SDS011;6107;49.078;8.578;2023-05-23T00:02:16;68.53;;;36.80;;
12088;SDS011;6107;49.078;8.578;2023-05-23T00:04:42;72.97;;;36.40;;
12088;SDS011;6107;49.078;8.578;2023-05-23T00:07:08;70.50;;;37.15;;
12088;SDS011;6107;49.078;8.578;2023-05-23T00:09:34;67.82;;;35.92;;
12088;SDS011;6107;49.078;8.578;2023-05-23T00:11:59;69.85;;;36.50;;
12088;SDS011;6107;49.078;8.578;2023-05-23T00:14:25;78.32;;;39.63;;
12088;SDS011;6107;49.078;8.578;2023-05-23T00:16:51;71.22;;;37.33;;
12088;SDS011;6107;49.078;8.578;2023-05-23T00:19:16;69.60;;;35.80;;
12088;SDS011;6107;49.078;8.578;2023-05-23T00:21:42;69.05;;;36.67;;
12088;SDS011;6107;49.078;8.578;2023-05-23T00:24:12;58.20;;;32.72;;
12088;SDS011;6107;49.078;8.578;2023-05-23T00:26:38;72.72;;;34.53;;
12088;SDS011;6107;49.078;8.578;2023-05-23T00:29:03;76.85;;;38.03;;
12088;SDS011;6107;49.078;8.578;2023-05-23T00:31:29;68.72;;;36.45;;
12088;SDS011;6107;49.078;8.578;2023-05-23T00:33:55;68.47;;;36.50;;
12088;SDS011;6107;49.078;8.578;2023-05-23T00:36:21;80.10;;;38.15;;
12088;SDS011;6107;49.078;8.578;2023-05-23T00:38:47;73.95;;;38.13;;
12088;SDS011;6107;49.078;8.578;2023-05-23T00:41:13;67.55;;;33.97;;
12088;SDS011;6107;49.078;8.578;2023-05-23T00:43:39;81.20;;;38.70;;
12088;SDS011;6107;49.078;8.578;2023-05-23T00:46:04;75.57;;;39.03;;
12088;SDS011;6107;49.078;8.578;2023-05-23T00:48:30;84.75;;;40.33;;
12088;SDS011;6107;49.078;8.578;2023-05-23T00:50:56;83.43;;;41.28;;
12088;SDS011;6107;49.078;8.578;2023-05-23T00:53:22;72.07;;;39.33;;
12088;SDS011;6107;49.078;8.578;2023-05-23T00:55:48;87.13;;;42.15;;
12088;SDS011;6107;49.078;8.578;2023-05-23T00:58:14;85.47;;;42.67;;
12088;SDS011;6107;49.078;8.578;2023-05-23T01:00:41;79.22;;;41.88;;
12088;SDS011;6107;49.078;8.578;2023-05-23T01:03:09;74.20;;;38.30;;
12088;SDS011;6107;49.078;8.578;2023-05-23T01:05:42;61.22;;;35.97;;
12088;SDS011;6107;49.078;8.578;2023-05-23T01:08:08;60.25;;;33.65;;
12088;SDS011;6107;49.078;8.578;2023-05-23T01:10:34;80.32;;;40.35;;
12088;SDS011;6107;49.078;8.578;2023-05-23T01:13:03;86.15;;;41.00;;
12088;SDS011;6107;49.078;8.578;2023-05-23T01:15:53;90.80;;;41.88;;
12088;SDS011;6107;49.078;8.578;2023-05-23T01:18:28;80.53;;;40.17;;
12088;SDS011;6107;49.078;8.578;2023-05-23T01:26:12;78.50;;;41.00;;
12088;SDS011;6107;49.078;8.578;2023-05-23T01:29:10;85.80;;;41.50;;
12088;SDS011;6107;49.078;8.578;2023-05-23T01:31:39;84.72;;;43.15;;
12088;SDS011;6107;49.078;8.578;2023-05-23T01:34:09;75.70;;;40.60;;
12088;SDS011;6107;49.078;8.578;2023-05-23T01:36:40;74.50;;;40.72;;
12088;SDS011;6107;49.078;8.578;2023-05-23T01:39:07;79.05;;;40.08;;
12088;SDS011;6107;49.078;8.578;2023-05-23T01:41:33;71.32;;;39.38;;
12088;SDS011;6107;49.078;8.578;2023-05-23T01:43:58;75.97;;;38.95;;
12088;SDS011;6107;49.078;8.578;2023-05-23T01:46:25;70.20;;;38.38;;
12088;SDS011;6107;49.078;8.578;2023-05-23T01:48:53;75.28;;;39.17;;
12088;SDS011;6107;49.078;8.578;2023-05-23T01:51:20;71.60;;;39.00;;
12088;SDS011;6107;49.078;8.578;2023-05-23T01:53:46;68.22;;;38.05;;
12088;SDS011;6107;49.078;8.578;2023-05-23T01:56:14;60.85;;;36.28;;
12088;SDS011;6107;49.078;8.578;2023-05-23T01:58:39;63.33;;;37.30;;
12088;SDS011;6107;49.078;8.578;2023-05-23T02:01:05;67.68;;;37.90;;
12088;SDS011;6107;49.078;8.578;2023-05-23T02:03:31;63.65;;;36.95;;
12088;SDS011;6107;49.078;8.578;2023-05-23T02:05:56;67.57;;;36.75;;
12088;SDS011;6107;49.078;8.578;2023-05-23T02:08:22;70.03;;;36.97;;
12088;SDS011;6107;49.078;8.578;2023-05-23T02:10:48;68.10;;;35.85;;
12088;SDS011;6107;49.078;8.578;2023-05-23T02:13:13;69.30;;;38.17;;
12088;SDS011;6107;49.078;8.578;2023-05-23T02:15:39;65.80;;;36.63;;
12088;SDS011;6107;49.078;8.578;2023-05-23T02:18:04;71.60;;;38.47;;
12088;SDS011;6107;49.078;8.578;2023-05-23T02:20:30;65.50;;;36.72;;
12088;SDS011;6107;49.078;8.578;2023-05-23T02:22:56;65.43;;;35.15;;
12088;SDS011;6107;49.078;8.578;2023-05-23T02:25:21;59.58;;;34.90;;
12088;SDS011;6107;49.078;8.578;2023-05-23T02:27:47;62.75;;;35.47;;
12088;SDS011;6107;49.078;8.578;2023-05-23T02:30:12;66.68;;;37.15;;
12088;SDS011;6107;49.078;8.578;2023-05-23T02:32:38;65.78;;;37.78;;
12088;SDS011;6107;49.078;8.578;2023-05-23T02:35:03;65.38;;;36.33;;
12088;SDS011;6107;49.078;8.578;2023-05-23T02:37:30;59.20;;;34.92;;
12088;SDS011;6107;49.078;8.578;2023-05-23T02:39:55;66.13;;;37.03;;
12088;SDS011;6107;49.078;8.578;2023-05-23T02:42:21;66.63;;;37.85;;
12088;SDS011;6107;49.078;8.578;2023-05-23T02:44:47;69.13;;;38.50;;
12088;SDS011;6107;49.078;8.578;2023-05-23T02:47:12;64.43;;;35.50;;
12088;SDS011;6107;49.078;8.578;2023-05-23T02:49:38;61.72;;;34.95;;
12088;SDS011;6107;49.078;8.578;2023-05-23T02:52:03;61.83;;;35.40;;
12088;SDS011;6107;49.078;8.578;2023-05-23T02:54:29;56.38;;;35.58;;
12088;SDS011;6107;49.078;8.578;2023-05-23T02:56:55;58.72;;;36.08;;
12088;SDS011;6107;49.078;8.578;2023-05-23T02:59:20;57.58;;;35.58;;
12088;SDS011;6107;49.078;8.578;2023-05-23T03:01:47;59.22;;;34.83;;
12088;SDS011;6107;49.078;8.578;2023-05-23T03:04:12;59.67;;;34.28;;
12088;SDS011;6107;49.078;8.578;2023-05-23T03:06:42;55.10;;;33.88;;
12088;SDS011;6107;49.078;8.578;2023-05-23T03:09:09;54.65;;;34.42;;
12088;SDS011;6107;49.078;8.578;2023-05-23T03:11:35;55.67;;;34.70;;
12088;SDS011;6107;49.078;8.578;2023-05-23T03:14:01;54.80;;;32.20;;
12088;SDS011;6107;49.078;8.578;2023-05-23T03:16:27;52.40;;;32.55;;
12088;SDS011;6107;49.078;8.578;2023-05-23T03:18:52;58.42;;;34.45;;
12088;SDS011;6107;49.078;8.578;2023-05-23T03:21:18;59.35;;;35.58;;
12088;SDS011;6107;49.078;8.578;2023-05-23T03:23:43;58.28;;;33.80;;
12088;SDS011;6107;49.078;8.578;2023-05-23T03:26:09;54.00;;;34.70;;
12088;SDS011;6107;49.078;8.578;2023-05-23T03:28:35;53.30;;;34.60;;
12088;SDS011;6107;49.078;8.578;2023-05-23T03:31:01;55.55;;;33.33;;
12088;SDS011;6107;49.078;8.578;2023-05-23T03:33:26;56.25;;;34.90;;
12088;SDS011;6107;49.078;8.578;2023-05-23T03:35:52;53.25;;;32.42;;
12088;SDS011;6107;49.078;8.578;2023-05-23T03:38:17;60.08;;;35.67;;
12088;SDS011;6107;49.078;8.578;2023-05-23T03:40:43;58.65;;;34.67;;
12088;SDS011;6107;49.078;8.578;2023-05-23T03:43:08;56.30;;;34.33;;
12088;SDS011;6107;49.078;8.578;2023-05-23T03:45:34;50.22;;;32.85;;
12088;SDS011;6107;49.078;8.578;2023-05-23T03:48:00;55.97;;;34.45;;
12088;SDS011;6107;49.078;8.578;2023-05-23T03:50:25;58.92;;;35.47;;
12088;SDS011;6107;49.078;8.578;2023-05-23T03:52:52;54.80;;;34.33;;
12088;SDS011;6107;49.078;8.578;2023-05-23T03:55:18;57.35;;;35.13;;
12088;SDS011;6107;49.078;8.578;2023-05-23T03:57:46;52.17;;;32.78;;
12088;SDS011;6107;49.078;8.578;2023-05-23T04:00:12;63.65;;;36.03;;
12088;SDS011;6107;49.078;8.578;2023-05-23T04:02:39;54.47;;;35.60;;
12088;SDS011;6107;49.078;8.578;2023-05-23T04:05:05;56.92;;;34.67;;
12088;SDS011;6107;49.078;8.578;2023-05-23T04:07:31;65.57;;;36.63;;
12088;SDS011;6107;49.078;8.578;2023-05-23T04:10:00;65.07;;;39.08;;
12088;SDS011;6107;49.078;8.578;2023-05-23T04:12:27;65.05;;;39.63;;
12088;SDS011;6107;49.078;8.578;2023-05-23T04:14:55;61.95;;;39.15;;
12088;SDS011;6107;49.078;8.578;2023-05-23T04:17:21;65.65;;;39.55;;
12088;SDS011;6107;49.078;8.578;2023-05-23T04:19:47;59.83;;;37.85;;
12088;SDS011;6107;49.078;8.578;2023-05-23T04:22:13;61.28;;;38.30;;
12088;SDS011;6107;49.078;8.578;2023-05-23T04:24:39;61.35;;;37.30;;
12088;SDS011;6107;49.078;8.578;2023-05-23T04:27:04;62.00;;;38.20;;
12088;SDS011;6107;49.078;8.578;2023-05-23T04:29:31;60.70;;;38.20;;
12088;SDS011;6107;49.078;8.578;2023-05-23T04:31:58;62.33;;;38.28;;
12088;SDS011;6107;49.078;8.578;2023-05-23T04:34:24;57.88;;;38.60;;
12088;SDS011;6107;49.078;8.578;2023-05-23T04:36:51;56.47;;;37.60;;
12088;SDS011;6107;49.078;8.578;2023-05-23T04:39:17;57.30;;;38.28;;
12088;SDS011;6107;49.078;8.578;2023-05-23T04:41:44;56.95;;;36.83;;
12088;SDS011;6107;49.078;8.578;2023-05-23T04:44:09;58.45;;;35.95;;
12088;SDS011;6107;49.078;8.578;2023-05-23T04:46:36;56.88;;;36.38;;
12088;SDS011;6107;49.078;8.578;2023-05-23T04:49:05;54.88;;;35.22;;
12088;SDS011;6107;49.078;8.578;2023-05-23T04:51:32;53.25;;;35.40;;
12088;SDS011;6107;49.078;8.578;2023-05-23T04:53:57;53.67;;;35.20;;
12088;SDS011;6107;49.078;8.578;2023-05-23T04:56:23;59.28;;;36.85;;
12088;SDS011;6107;49.078;8.578;2023-05-23T04:58:51;53.70;;;35.28;;
12088;SDS011;6107;49.078;8.578;2023-05-23T05:01:16;49.08;;;34.55;;
12088;SDS011;6107;49.078;8.578;2023-05-23T05:03:42;49.75;;;34.20;;
12088;SDS011;6107;49.078;8.578;2023-05-23T05:06:07;51.13;;;34.13;;
12088;SDS011;6107;49.078;8.578;2023-05-23T05:08:33;50.33;;;34.25;;
12088;SDS011;6107;49.078;8.578;2023-05-23T05:10:58;50.70;;;32.83;;
12088;SDS011;6107;49.078;8.578;2023-05-23T05:13:24;48.42;;;33.22;;
12088;SDS011;6107;49.078;8.578;2023-05-23T05:15:49;48.03;;;33.53;;
12088;SDS011;6107;49.078;8.578;2023-05-23T05:18:16;52.20;;;34.45;;
12088;SDS011;6107;49.078;8.578;2023-05-23T05:20:42;48.33;;;31.90;;
12088;SDS011;6107;49.078;8.578;2023-05-23T05:23:07;49.03;;;32.92;;
12088;SDS011;6107;49.078;8.578;2023-05-23T05:25:33;46.70;;;31.58;;
12088;SDS011;6107;49.078;8.578;2023-05-23T05:28:00;44.20;;;31.48;;
12088;SDS011;6107;49.078;8.578;2023-05-23T05:30:29;46.80;;;31.75;;
12088;SDS011;6107;49.078;8.578;2023-05-23T05:32:57;44.03;;;30.77;;
12088;SDS011;6107;49.078;8.578;2023-05-23T05:35:23;45.72;;;30.42;;
12088;SDS011;6107;49.078;8.578;2023-05-23T05:37:48;44.10;;;29.52;;
12088;SDS011;6107;49.078;8.578;2023-05-23T05:40:14;45.22;;;30.40;;
12088;SDS011;6107;49.078;8.578;2023-05-23T05:42:39;39.33;;;28.75;;
12088;SDS011;6107;49.078;8.578;2023-05-23T05:45:05;40.28;;;27.45;;
12088;SDS011;6107;49.078;8.578;2023-05-23T05:47:31;39.72;;;27.00;;
12088;SDS011;6107;49.078;8.578;2023-05-23T05:49:57;40.00;;;28.13;;
12088;SDS011;6107;49.078;8.578;2023-05-23T05:52:22;39.97;;;27.77;;
12088;SDS011;6107;49.078;8.578;2023-05-23T05:54:47;37.58;;;26.65;;
12088;SDS011;6107;49.078;8.578;2023-05-23T05:57:13;41.10;;;26.58;;
12088;SDS011;6107;49.078;8.578;2023-05-23T05:59:38;38.95;;;25.27;;
12088;SDS011;6107;49.078;8.578;2023-05-23T06:02:04;37.08;;;25.73;;
12088;SDS011;6107;49.078;8.578;2023-05-23T06:04:30;31.88;;;23.23;;
12088;SDS011;6107;49.078;8.578;2023-05-23T06:06:56;33.72;;;22.42;;
12088;SDS011;6107;49.078;8.578;2023-05-23T06:09:22;29.20;;;20.52;;
12088;SDS011;6107;49.078;8.578;2023-05-23T06:11:47;28.23;;;19.65;;
12088;SDS011;6107;49.078;8.578;2023-05-23T06:14:13;29.60;;;20.83;;
12088;SDS011;6107;49.078;8.578;2023-05-23T06:16:38;30.35;;;20.13;;
12088;SDS011;6107;49.078;8.578;2023-05-23T06:19:04;29.52;;;20.88;;
12088;SDS011;6107;49.078;8.578;2023-05-23T06:21:29;27.65;;;19.42;;
12088;SDS011;6107;49.078;8.578;2023-05-23T06:23:55;28.73;;;19.73;;
12088;SDS011;6107;49.078;8.578;2023-05-23T06:26:20;26.73;;;18.90;;
12088;SDS011;6107;49.078;8.578;2023-05-23T06:28:46;25.88;;;19.15;;
12088;SDS011;6107;49.078;8.578;2023-05-23T06:31:11;26.02;;;18.20;;
12088;SDS011;6107;49.078;8.578;2023-05-23T06:33:37;25.70;;;18.77;;
12088;SDS011;6107;49.078;8.578;2023-05-23T06:36:02;24.85;;;18.27;;
12088;SDS011;6107;49.078;8.578;2023-05-23T06:38:28;26.55;;;18.23;;
12088;SDS011;6107;49.078;8.578;2023-05-23T06:40:57;28.10;;;18.42;;
12088;SDS011;6107;49.078;8.578;2023-05-23T06:43:23;25.20;;;19.02;;
12088;SDS011;6107;49.078;8.578;2023-05-23T06:45:48;27.70;;;19.85;;
12088;SDS011;6107;49.078;8.578;2023-05-23T06:48:15;23.23;;;17.65;;
12088;SDS011;6107;49.078;8.578;2023-05-23T06:50:41;25.90;;;18.30;;
12088;SDS011;6107;49.078;8.578;2023-05-23T06:53:06;24.73;;;17.92;;
12088;SDS011;6107;49.078;8.578;2023-05-23T06:55:32;27.90;;;19.90;;
12088;SDS011;6107;49.078;8.578;2023-05-23T06:57:58;26.33;;;18.33;;
12088;SDS011;6107;49.078;8.578;2023-05-23T07:00:24;25.08;;;18.60;;
12088;SDS011;6107;49.078;8.578;2023-05-23T07:02:49;26.63;;;18.25;;
12088;SDS011;6107;49.078;8.578;2023-05-23T07:05:15;24.52;;;17.90;;
12088;SDS011;6107;49.078;8.578;2023-05-23T07:07:41;26.55;;;19.15;;
12088;SDS011;6107;49.078;8.578;2023-05-23T07:10:07;27.20;;;19.45;;
12088;SDS011;6107;49.078;8.578;2023-05-23T07:12:33;27.77;;;18.20;;
12088;SDS011;6107;49.078;8.578;2023-05-23T07:14:59;26.50;;;18.95;;
12088;SDS011;6107;49.078;8.578;2023-05-23T07:17:24;26.73;;;18.85;;
12088;SDS011;6107;49.078;8.578;2023-05-23T07:19:50;25.88;;;17.83;;
12088;SDS011;6107;49.078;8.578;2023-05-23T07:22:15;28.15;;;18.13;;
12088;SDS011;6107;49.078;8.578;2023-05-23T07:24:41;27.92;;;18.60;;
12088;SDS011;6107;49.078;8.578;2023-05-23T07:27:06;25.73;;;18.45;;
12088;SDS011;6107;49.078;8.578;2023-05-23T07:29:32;26.55;;;18.08;;
12088;SDS011;6107;49.078;8.578;2023-05-23T07:31:57;25.75;;;18.27;;
12088;SDS011;6107;49.078;8.578;2023-05-23T07:34:23;23.38;;;17.27;;
12088;SDS011;6107;49.078;8.578;2023-05-23T07:36:50;25.48;;;17.73;;
12088;SDS011;6107;49.078;8.578;2023-05-23T07:39:16;25.23;;;17.92;;
12088;SDS011;6107;49.078;8.578;2023-05-23T07:41:46;23.88;;;17.45;;
12088;SDS011;6107;49.078;8.578;2023-05-23T07:44:12;25.55;;;16.65;;
12088;SDS011;6107;49.078;8.578;2023-05-23T07:46:37;21.80;;;16.70;;
12088;SDS011;6107;49.078;8.578;2023-05-23T07:49:03;21.45;;;16.20;;
12088;SDS011;6107;49.078;8.578;2023-05-23T07:51:28;21.08;;;16.50;;
12088;SDS011;6107;49.078;8.578;2023-05-23T07:53:54;20.35;;;15.65;;
12088;SDS011;6107;49.078;8.578;2023-05-23T07:56:20;20.75;;;14.88;;
12088;SDS011;6107;49.078;8.578;2023-05-23T07:58:45;20.38;;;15.13;;
12088;SDS011;6107;49.078;8.578;2023-05-23T08:01:11;21.75;;;15.43;;
12088;SDS011;6107;49.078;8.578;2023-05-23T08:03:36;19.10;;;14.35;;
12088;SDS011;6107;49.078;8.578;2023-05-23T08:06:02;21.60;;;14.63;;
12088;SDS011;6107;49.078;8.578;2023-05-23T08:08:28;21.33;;;14.88;;
12088;SDS011;6107;49.078;8.578;2023-05-23T08:10:53;20.83;;;14.73;;
12088;SDS011;6107;49.078;8.578;2023-05-23T08:13:19;18.50;;;14.00;;
12088;SDS011;6107;49.078;8.578;2023-05-23T08:15:44;18.95;;;14.23;;
12088;SDS011;6107;49.078;8.578;2023-05-23T08:18:10;18.08;;;13.75;;
12088;SDS011;6107;49.078;8.578;2023-05-23T08:20:36;18.20;;;13.95;;
12088;SDS011;6107;49.078;8.578;2023-05-23T08:23:01;19.25;;;14.48;;
12088;SDS011;6107;49.078;8.578;2023-05-23T08:25:27;20.10;;;14.95;;
12088;SDS011;6107;49.078;8.578;2023-05-23T08:27:57;18.65;;;13.48;;
12088;SDS011;6107;49.078;8.578;2023-05-23T08:30:24;15.52;;;12.77;;
12088;SDS011;6107;49.078;8.578;2023-05-23T08:32:50;18.33;;;14.30;;
12088;SDS011;6107;49.078;8.578;2023-05-23T08:35:17;18.67;;;12.95;;
12088;SDS011;6107;49.078;8.578;2023-05-23T08:37:43;16.67;;;13.07;;
12088;SDS011;6107;49.078;8.578;2023-05-23T08:40:12;17.83;;;13.60;;
12088;SDS011;6107;49.078;8.578;2023-05-23T08:42:41;19.20;;;14.10;;
12088;SDS011;6107;49.078;8.578;2023-05-23T08:45:07;17.77;;;13.77;;
12088;SDS011;6107;49.078;8.578;2023-05-23T08:47:33;19.60;;;14.05;;
12088;SDS011;6107;49.078;8.578;2023-05-23T08:50:04;18.40;;;13.90;;
12088;SDS011;6107;49.078;8.578;2023-05-23T08:52:32;18.10;;;13.15;;
12088;SDS011;6107;49.078;8.578;2023-05-23T08:54:59;17.48;;;13.98;;
12088;SDS011;6107;49.078;8.578;2023-05-23T08:57:25;18.40;;;13.38;;
12088;SDS011;6107;49.078;8.578;2023-05-23T08:59:52;17.83;;;12.93;;
12088;SDS011;6107;49.078;8.578;2023-05-23T09:02:18;17.55;;;13.32;;
12088;SDS011;6107;49.078;8.578;2023-05-23T09:04:44;17.35;;;12.63;;
12088;SDS011;6107;49.078;8.578;2023-05-23T09:07:10;16.92;;;12.52;;
12088;SDS011;6107;49.078;8.578;2023-05-23T09:09:40;15.63;;;12.63;;
12088;SDS011;6107;49.078;8.578;2023-05-23T09:12:05;20.20;;;12.35;;
12088;SDS011;6107;49.078;8.578;2023-05-23T09:14:31;15.32;;;12.32;;
12088;SDS011;6107;49.078;8.578;2023-05-23T09:17:00;15.48;;;11.77;;
12088;SDS011;6107;49.078;8.578;2023-05-23T09:19:26;16.30;;;11.07;;
12088;SDS011;6107;49.078;8.578;2023-05-23T09:21:52;14.15;;;10.40;;
12088;SDS011;6107;49.078;8.578;2023-05-23T09:24:19;15.13;;;11.00;;
12088;SDS011;6107;49.078;8.578;2023-05-23T09:26:45;11.93;;;10.05;;
12088;SDS011;6107;49.078;8.578;2023-05-23T09:29:12;12.13;;;10.13;;
12088;SDS011;6107;49.078;8.578;2023-05-23T09:31:38;13.40;;;10.25;;
12088;SDS011;6107;49.078;8.578;2023-05-23T09:34:03;10.43;;;9.20;;
12088;SDS011;6107;49.078;8.578;2023-05-23T09:36:29;10.88;;;8.77;;
12088;SDS011;6107;49.078;8.578;2023-05-23T09:39:01;10.98;;;9.18;;
12088;SDS011;6107;49.078;8.578;2023-05-23T09:41:32;10.98;;;8.23;;
12088;SDS011;6107;49.078;8.578;2023-05-23T09:43:59;13.05;;;8.70;;
12088;SDS011;6107;49.078;8.578;2023-05-23T09:46:30;10.75;;;8.57;;
12088;SDS011;6107;49.078;8.578;2023-05-23T09:48:58;12.48;;;8.00;;
12088;SDS011;6107;49.078;8.578;2023-05-23T09:51:24;8.50;;;7.50;;
12088;SDS011;6107;49.078;8.578;2023-05-23T09:53:50;10.95;;;7.88;;
12088;SDS011;6107;49.078;8.578;2023-05-23T09:56:16;10.82;;;7.65;;
12088;SDS011;6107;49.078;8.578;2023-05-23T09:58:43;9.52;;;7.15;;
12088;SDS011;6107;49.078;8.578;2023-05-23T10:01:13;7.70;;;6.85;;
12088;SDS011;6107;49.078;8.578;2023-05-23T10:03:41;12.15;;;7.32;;
12088;SDS011;6107;49.078;8.578;2023-05-23T10:06:31;8.65;;;6.95;;
12088;SDS011;6107;49.078;8.578;2023-05-23T10:09:15;7.75;;;6.95;;
12088;SDS011;6107;49.078;8.578;2023-05-23T10:14:27;7.78;;;5.88;;
12088;SDS011;6107;49.078;8.578;2023-05-23T10:16:55;9.32;;;7.10;;
12088;SDS011;6107;49.078;8.578;2023-05-23T10:19:30;8.27;;;7.00;;
12088;SDS011;6107;49.078;8.578;2023-05-23T10:22:09;9.48;;;7.10;;
12088;SDS011;6107;49.078;8.578;2023-05-23T10:24:36;7.38;;;6.47;;
12088;SDS011;6107;49.078;8.578;2023-05-23T10:27:02;7.28;;;6.22;;
12088;SDS011;6107;49.078;8.578;2023-05-23T10:29:28;7.30;;;6.22;;
12088;SDS011;6107;49.078;8.578;2023-05-23T10:31:57;6.90;;;5.90;;
12088;SDS011;6107;49.078;8.578;2023-05-23T10:34:26;7.22;;;6.05;;
12088;SDS011;6107;49.078;8.578;2023-05-23T10:37:01;6.50;;;5.90;;
12088;SDS011;6107;49.078;8.578;2023-05-23T10:47:39;8.80;;;5.38;;
12088;SDS011;6107;49.078;8.578;2023-05-23T10:50:05;5.93;;;5.30;;
12088;SDS011;6107;49.078;8.578;2023-05-23T10:52:38;5.93;;;5.32;;
12088;SDS011;6107;49.078;8.578;2023-05-23T10:55:11;6.82;;;5.40;;
12088;SDS011;6107;49.078;8.578;2023-05-23T10:57:42;6.00;;;4.93;;
12088;SDS011;6107;49.078;8.578;2023-05-23T11:00:14;6.78;;;5.30;;
12088;SDS011;6107;49.078;8.578;2023-05-23T11:02:53;6.00;;;5.38;;
12088;SDS011;6107;49.078;8.578;2023-05-23T11:05:22;6.25;;;5.15;;
12088;SDS011;6107;49.078;8.578;2023-05-23T11:08:10;6.57;;;5.45;;
12088;SDS011;6107;49.078;8.578;2023-05-23T11:11:00;5.60;;;5.00;;
12088;SDS011;6107;49.078;8.578;2023-05-23T11:16:30;5.22;;;4.65;;
12088;SDS011;6107;49.078;8.578;2023-05-23T11:21:42;5.60;;;4.30;;
12088;SDS011;6107;49.078;8.578;2023-05-23T11:24:09;4.43;;;4.03;;
12088;SDS011;6107;49.078;8.578;2023-05-23T11:26:35;5.75;;;4.35;;
12088;SDS011;6107;49.078;8.578;2023-05-23T11:29:00;4.40;;;4.00;;
12088;SDS011;6107;49.078;8.578;2023-05-23T11:31:28;5.07;;;3.80;;
12088;SDS011;6107;49.078;8.578;2023-05-23T11:33:54;4.30;;;3.90;;
12088;SDS011;6107;49.078;8.578;2023-05-23T11:36:20;4.60;;;4.18;;
12088;SDS011;6107;49.078;8.578;2023-05-23T11:38:48;5.10;;;4.28;;
12088;SDS011;6107;49.078;8.578;2023-05-23T11:41:17;4.50;;;4.10;;
12088;SDS011;6107;49.078;8.578;2023-05-23T11:43:49;4.43;;;4.03;;
12088;SDS011;6107;49.078;8.578;2023-05-23T11:46:15;5.03;;;4.25;;
12088;SDS011;6107;49.078;8.578;2023-05-23T11:48:47;4.85;;;4.30;;
12088;SDS011;6107;49.078;8.578;2023-05-23T11:51:13;6.18;;;4.60;;
12088;SDS011;6107;49.078;8.578;2023-05-23T11:53:39;4.47;;;4.03;;
12088;SDS011;6107;49.078;8.578;2023-05-23T11:56:05;5.90;;;4.30;;
12088;SDS011;6107;49.078;8.578;2023-05-23T11:58:33;5.50;;;4.70;;
12088;SDS011;6107;49.078;8.578;2023-05-23T12:01:00;4.78;;;4.10;;
12088;SDS011;6107;49.078;8.578;2023-05-23T12:03:31;4.85;;;4.35;;
12088;SDS011;6107;49.078;8.578;2023-05-23T12:06:08;5.00;;;4.50;;
12088;SDS011;6107;49.078;8.578;2023-05-23T12:08:34;5.65;;;4.68;;
12088;SDS011;6107;49.078;8.578;2023-05-23T12:11:01;7.15;;;4.20;;
12088;SDS011;6107;49.078;8.578;2023-05-23T12:13:28;5.85;;;4.68;;
12088;SDS011;6107;49.078;8.578;2023-05-23T12:15:54;5.55;;;4.60;;
12088;SDS011;6107;49.078;8.578;2023-05-23T12:18:21;4.80;;;4.30;;
12088;SDS011;6107;49.078;8.578;2023-05-23T12:20:47;5.70;;;5.15;;
12088;SDS011;6107;49.078;8.578;2023-05-23T12:23:21;5.18;;;4.35;;
12088;SDS011;6107;49.078;8.578;2023-05-23T12:25:51;5.85;;;4.25;;
12088;SDS011;6107;49.078;8.578;2023-05-23T12:28:18;5.10;;;4.38;;
12088;SDS011;6107;49.078;8.578;2023-05-23T12:30:58;5.93;;;4.82;;
12088;SDS011;6107;49.078;8.578;2023-05-23T12:33:36;5.50;;;4.70;;
12088;SDS011;6107;49.078;8.578;2023-05-23T12:36:03;4.80;;;4.30;;
12088;SDS011;6107;49.078;8.578;2023-05-23T12:38:31;5.22;;;4.38;;
12088;SDS011;6107;49.078;8.578;2023-05-23T12:41:08;4.70;;;4.30;;
12088;SDS011;6107;49.078;8.578;2023-05-23T12:43:50;5.53;;;4.72;;
12088;SDS011;6107;49.078;8.578;2023-05-23T12:46:17;5.20;;;4.15;;
12088;SDS011;6107;49.078;8.578;2023-05-23T12:48:43;5.03;;;4.53;;
12088;SDS011;6107;49.078;8.578;2023-05-23T12:51:08;5.07;;;4.50;;
12088;SDS011;6107;49.078;8.578;2023-05-23T12:53:34;5.32;;;4.20;;
12088;SDS011;6107;49.078;8.578;2023-05-23T12:56:00;5.13;;;4.63;;
12088;SDS011;6107;49.078;8.578;2023-05-23T12:58:26;5.43;;;4.93;;
12088;SDS011;6107;49.078;8.578;2023-05-23T13:00:51;5.40;;;4.72;;
12088;SDS011;6107;49.078;8.578;2023-05-23T13:03:17;5.90;;;4.80;;
12088;SDS011;6107;49.078;8.578;2023-05-23T13:05:42;6.20;;;5.18;;
12088;SDS011;6107;49.078;8.578;2023-05-23T13:08:08;6.22;;;5.03;;
12088;SDS011;6107;49.078;8.578;2023-05-23T13:10:34;5.85;;;4.43;;
12088;SDS011;6107;49.078;8.578;2023-05-23T13:12:59;5.80;;;5.10;;
12088;SDS011;6107;49.078;8.578;2023-05-23T13:15:26;5.88;;;5.10;;
12088;SDS011;6107;49.078;8.578;2023-05-23T13:17:51;5.30;;;4.80;;
12088;SDS011;6107;49.078;8.578;2023-05-23T13:20:17;7.55;;;5.15;;
12088;SDS011;6107;49.078;8.578;2023-05-23T13:22:42;5.20;;;4.70;;
12088;SDS011;6107;49.078;8.578;2023-05-23T13:25:08;5.82;;;5.15;;
12088;SDS011;6107;49.078;8.578;2023-05-23T13:27:34;5.57;;;4.50;;
12088;SDS011;6107;49.078;8.578;2023-05-23T13:29:59;6.47;;;4.72;;
12088;SDS011;6107;49.078;8.578;2023-05-23T13:32:25;4.95;;;4.32;;
12088;SDS011;6107;49.078;8.578;2023-05-23T13:34:50;4.88;;;4.32;;
12088;SDS011;6107;49.078;8.578;2023-05-23T13:37:16;5.32;;;4.82;;
12088;SDS011;6107;49.078;8.578;2023-05-23T13:39:42;8.13;;;6.38;;
12088;SDS011;6107;49.078;8.578;2023-05-23T13:42:08;7.88;;;6.47;;
12088;SDS011;6107;49.078;8.578;2023-05-23T13:44:34;8.52;;;6.65;;
12088;SDS011;6107;49.078;8.578;2023-05-23T13:47:10;8.05;;;6.57;;
12088;SDS011;6107;49.078;8.578;2023-05-23T13:49:37;8.45;;;6.90;;
12088;SDS011;6107;49.078;8.578;2023-05-23T14:36:41;11.07;;;6.97;;
12088;SDS011;6107;49.078;8.578;2023-05-23T14:39:06;10.13;;;6.97;;
12088;SDS011;6107;49.078;8.578;2023-05-23T14:41:33;9.50;;;8.38;;
12088;SDS011;6107;49.078;8.578;2023-05-23T14:43:59;10.95;;;7.88;;
12088;SDS011;6107;49.078;8.578;2023-05-23T14:46:24;8.35;;;7.25;;
12088;SDS011;6107;49.078;8.578;2023-05-23T14:48:50;10.43;;;7.80;;
12088;SDS011;6107;49.078;8.578;2023-05-23T14:51:15;9.13;;;7.78;;
12088;SDS011;6107;49.078;8.578;2023-05-23T14:53:41;8.95;;;7.68;;
12088;SDS011;6107;49.078;8.578;2023-05-23T14:56:06;10.77;;;8.68;;
12088;SDS011;6107;49.078;8.578;2023-05-23T14:58:32;11.48;;;8.60;;
12088;SDS011;6107;49.078;8.578;2023-05-23T15:00:57;12.57;;;8.75;;
12088;SDS011;6107;49.078;8.578;2023-05-23T15:03:23;10.35;;;7.93;;
12088;SDS011;6107;49.078;8.578;2023-05-23T15:05:49;9.40;;;8.07;;
12088;SDS011;6107;49.078;8.578;2023-05-23T15:08:14;9.75;;;7.60;;
12088;SDS011;6107;49.078;8.578;2023-05-23T15:10:42;10.65;;;8.25;;
12088;SDS011;6107;49.078;8.578;2023-05-23T15:13:09;10.98;;;8.05;;
12088;SDS011;6107;49.078;8.578;2023-05-23T15:15:34;9.27;;;7.47;;
12088;SDS011;6107;49.078;8.578;2023-05-23T15:18:04;8.23;;;7.15;;
12088;SDS011;6107;49.078;8.578;2023-05-23T15:20:33;10.45;;;6.97;;
12088;SDS011;6107;49.078;8.578;2023-05-23T15:23:00;7.68;;;6.72;;
12088;SDS011;6107;49.078;8.578;2023-05-23T15:25:27;8.70;;;6.75;;
12088;SDS011;6107;49.078;8.578;2023-05-23T15:27:53;8.02;;;6.38;;
12088;SDS011;6107;49.078;8.578;2023-05-23T15:30:18;9.25;;;7.05;;
12088;SDS011;6107;49.078;8.578;2023-05-23T15:32:44;9.40;;;6.40;;
12088;SDS011;6107;49.078;8.578;2023-05-23T15:35:09;7.82;;;5.60;;
12088;SDS011;6107;49.078;8.578;2023-05-23T15:37:35;6.15;;;5.55;;
12088;SDS011;6107;49.078;8.578;2023-05-23T15:40:01;19.48;;;8.15;;
12088;SDS011;6107;49.078;8.578;2023-05-23T15:42:27;9.80;;;5.65;;
12088;SDS011;6107;49.078;8.578;2023-05-23T15:44:53;6.70;;;5.47;;
12088;SDS011;6107;49.078;8.578;2023-05-23T15:47:18;8.35;;;6.22;;
12088;SDS011;6107;49.078;8.578;2023-05-23T15:49:45;7.18;;;6.47;;